Time,TemperatureF,DewpointF,PressureIn,WindDirection,WindDirectionDegrees,WindSpeedMPH,WindSpeedGustMPH,Humidity,HourlyPrecipIn,Conditions,Clouds,dailyrainin,SoftwareType,DateUTC
2014-11-26 00:22:00,36.0,29.0,30.07,East,82,1.0,3.0,75,0.00,,,0.00,,2014-11-26 05:22:00,
2014-11-26 00:42:00,35.0,29.0,30.08,SSW,193,0.0,5.0,78,0.00,,,0.00,,2014-11-26 05:42:00,
2014-11-26 00:53:00,35.0,29.0,30.08,ESE,114,3.0,8.0,77,0.00,,,0.00,,2014-11-26 05:53:00,
2014-11-26 01:13:00,34.0,27.0,30.08,ENE,75,3.0,8.0,76,0.00,,,0.00,,2014-11-26 06:13:00,
2014-11-26 01:22:00,34.0,27.0,30.09,ENE,66,3.0,7.0,76,0.00,,,0.00,,2014-11-26 06:22:00,
2014-11-26 01:42:00,34.0,27.0,30.10,ESE,110,2.0,10.0,76,0.00,,,0.00,,2014-11-26 06:42:00,
2014-11-26 01:52:00,33.0,25.0,30.10,ENE,68,3.0,10.0,72,0.00,,,0.00,,2014-11-26 06:52:00,
2014-11-26 02:22:00,32.0,24.0,30.11,ESE,103,2.0,6.0,72,0.00,,,0.00,,2014-11-26 07:22:00,
2014-11-26 02:52:00,32.0,25.0,30.14,East,83,2.0,4.0,74,0.00,,,0.00,,2014-11-26 07:52:00,
2014-11-26 03:12:00,31.0,25.0,30.13,ESE,108,0.0,2.0,77,0.00,,,0.00,,2014-11-26 08:12:00,
2014-11-26 03:22:00,31.0,24.0,30.14,NE,41,0.0,3.0,76,0.00,,,0.00,,2014-11-26 08:22:00,
2014-11-26 03:42:00,31.0,24.0,30.15,SE,129,0.0,3.0,76,0.00,,,0.00,,2014-11-26 08:42:00,
2014-11-26 03:53:00,30.0,23.0,30.16,East,80,0.0,3.0,76,0.00,,,0.00,,2014-11-26 08:53:00,
2014-11-26 04:12:00,30.0,23.0,30.17,SE,129,0.0,3.0,76,0.00,,,0.00,,2014-11-26 09:12:00,
2014-11-26 04:22:00,30.0,23.0,30.17,SE,129,0.0,3.0,76,0.00,,,0.00,,2014-11-26 09:22:00,
2014-11-26 04:43:00,30.0,24.0,30.15,NNW,328,0.0,3.0,77,0.00,,,0.00,,2014-11-26 09:43:00,
2014-11-26 04:54:00,30.0,23.0,30.17,SSW,203,0.0,5.0,76,0.00,,,0.00,,2014-11-26 09:54:00,
2014-11-26 05:23:00,30.0,23.0,30.17,SE,127,0.0,3.0,76,0.00,,,0.00,,2014-11-26 10:23:00,
2014-11-26 05:43:00,30.0,23.0,30.17,North,356,0.0,4.0,76,0.00,,,0.00,,2014-11-26 10:43:00,
2014-11-26 05:53:00,30.0,23.0,30.17,SSE,161,1.0,3.0,75,0.00,,,0.00,,2014-11-26 10:53:00,
2014-11-26 06:12:00,30.0,23.0,30.18,SW,225,0.0,4.0,75,0.00,,,0.00,,2014-11-26 11:12:00,
2014-11-26 06:22:00,29.0,22.0,30.16,North,6,0.0,7.0,76,0.00,,,0.00,,2014-11-26 11:22:00,
2014-11-26 06:42:00,29.0,22.0,30.16,SE,137,0.0,5.0,76,0.00,,,0.00,,2014-11-26 11:42:00,
2014-11-26 06:53:00,29.0,22.0,30.16,East,94,2.0,4.0,76,0.00,,,0.00,,2014-11-26 11:53:00,
2014-11-26 07:12:00,29.0,22.0,30.17,SSE,160,1.0,4.0,76,0.00,,,0.00,,2014-11-26 12:12:00,
2014-11-26 07:22:00,29.0,23.0,30.17,East,89,0.0,3.0,77,0.00,,,0.00,,2014-11-26 12:22:00,
2014-11-26 07:42:00,29.0,23.0,30.19,SSW,201,0.0,1.0,77,0.00,,,0.00,,2014-11-26 12:42:00,
2014-11-26 07:52:00,29.0,23.0,30.20,ESE,115,0.0,1.0,78,0.00,,,0.00,,2014-11-26 12:52:00,
2014-11-26 08:23:00,29.0,23.0,30.20,WNW,303,0.0,3.0,78,0.00,,,0.00,,2014-11-26 13:23:00,
2014-11-26 08:42:00,29.0,23.0,30.20,ENE,75,0.0,3.0,78,0.00,,,0.00,,2014-11-26 13:42:00,
2014-11-26 08:52:00,29.0,23.0,30.22,SW,218,0.0,2.0,78,0.00,,,0.00,,2014-11-26 13:52:00,
2014-11-26 09:22:00,29.0,23.0,30.21,ENE,68,0.0,3.0,78,0.00,,,0.00,,2014-11-26 14:22:00,
2014-11-26 09:42:00,29.0,23.0,30.19,SE,138,0.0,2.0,78,0.00,,,0.00,,2014-11-26 14:42:00,
2014-11-26 09:52:00,29.0,23.0,30.18,SSE,159,0.0,2.0,78,0.00,,,0.00,,2014-11-26 14:52:00,